Terminal Aerodrome Forecast
Issued by NWS

Home | Current Version | Previous Version | Graphics & Text | Print | Product List | Glossary On
Versions: 1 2 3 4 5 6 7 8 9 10 11 12 13 14
000
FTUS42 KMHX 241100
TAFPGV
TAF
KPGV 241140Z 2412/2512 32010G15KT 3SM -SHRA BR OVC007
     FM241800 30012G19KT P6SM BKN025
     FM242200 29006KT P6SM SKC
      AMD LTD TO CLD VIS AND WIND=

USA.gov is the U.S. government's official web portal to all federal, state and local government web resources and services.